Time,TemperatureF,DewpointF,PressureIn,WindDirection,WindDirectionDegrees,WindSpeedMPH,WindSpeedGustMPH,Humidity,HourlyPrecipIn,Conditions,Clouds,dailyrainin,SoftwareType,DateUTC
2013-04-02 00:00:00,50.3,25.7,29.84,West,259,0.0,0.0,38,0.00,,---,0.00,VWS V14.00,2013-04-02 07:00:00,
2013-04-02 00:02:00,50.2,25.6,29.84,West,259,0.0,0.0,38,0.00,,---,0.00,VWS V14.00,2013-04-02 07:02:00,
2013-04-02 00:07:00,49.8,26.5,29.84,West,259,0.0,0.0,40,0.00,,---,0.00,VWS V14.00,2013-04-02 07:07:00,
2013-04-02 00:12:00,50.6,26.0,29.84,West,259,0.0,0.0,38,0.00,,---,0.00,VWS V14.00,2013-04-02 07:12:00,
2013-04-02 00:17:00,51.1,26.4,29.84,West,259,0.0,0.0,38,0.00,,---,0.00,VWS V14.00,2013-04-02 07:17:00,
2013-04-02 00:22:00,51.5,25.5,29.84,WNW,303,0.0,5.0,36,0.00,,---,0.00,VWS V14.00,2013-04-02 07:22:00,
2013-04-02 00:28:00,51.6,25.5,29.84,WNW,303,0.0,5.0,36,0.00,,---,0.00,VWS V14.00,2013-04-02 07:28:00,
2013-04-02 00:30:00,51.3,25.3,29.84,WNW,303,0.0,5.0,36,0.00,,---,0.00,VWS V14.00,2013-04-02 07:30:00,
2013-04-02 00:33:00,51.2,25.2,29.84,WNW,303,0.0,0.0,36,0.00,,---,0.00,VWS V14.00,2013-04-02 07:33:00,
2013-04-02 00:38:00,50.4,25.1,29.84,WNW,303,0.0,0.0,37,0.00,,---,0.00,VWS V14.00,2013-04-02 07:38:00,
2013-04-02 00:43:00,49.4,24.2,29.84,WNW,303,0.0,0.0,37,0.00,,---,0.00,VWS V14.00,2013-04-02 07:43:00,
2013-04-02 00:48:00,48.4,24.0,29.84,WNW,303,0.0,0.0,38,0.00,,---,0.00,VWS V14.00,2013-04-02 07:48:00,
2013-04-02 00:53:00,47.7,24.0,29.84,WNW,303,0.0,0.0,39,0.00,,---,0.00,VWS V14.00,2013-04-02 07:53:00,
2013-04-02 00:58:00,47.4,23.7,29.84,WNW,303,0.0,0.0,39,0.00,,---,0.00,VWS V14.00,2013-04-02 07:58:00,
2013-04-02 01:00:00,47.3,23.6,29.84,WNW,303,0.0,0.0,39,0.00,,---,0.00,VWS V14.00,2013-04-02 08:00:00,
2013-04-02 01:03:00,47.3,23.0,29.84,WNW,303,0.0,0.0,38,0.00,,---,0.00,VWS V14.00,2013-04-02 08:03:00,
2013-04-02 01:08:00,47.6,23.3,29.84,WNW,303,0.0,0.0,38,0.00,,---,0.00,VWS V14.00,2013-04-02 08:08:00,
2013-04-02 01:13:00,47.9,22.9,29.84,WNW,303,0.0,0.0,37,0.00,,---,0.00,VWS V14.00,2013-04-02 08:13:00,
2013-04-02 01:18:00,47.2,22.9,29.84,WNW,303,0.0,0.0,38,0.00,,---,0.00,VWS V14.00,2013-04-02 08:18:00,
2013-04-02 01:23:00,46.5,22.9,29.84,WNW,303,0.0,0.0,39,0.00,,---,0.00,VWS V14.00,2013-04-02 08:23:00,
2013-04-02 01:28:00,45.3,21.8,29.84,WNW,303,0.0,0.0,39,0.00,,---,0.00,VWS V14.00,2013-04-02 08:28:00,
2013-04-02 01:30:00,44.5,21.7,29.84,WNW,303,0.0,0.0,40,0.00,,---,0.00,VWS V14.00,2013-04-02 08:30:00,
2013-04-02 01:33:00,44.4,22.2,29.84,WNW,303,0.0,0.0,41,0.00,,---,0.00,VWS V14.00,2013-04-02 08:33:00,
2013-04-02 01:38:00,44.0,21.2,29.84,WNW,303,0.0,0.0,40,0.00,,---,0.00,VWS V14.00,2013-04-02 08:38:00,
2013-04-02 01:43:00,43.5,21.4,29.84,WNW,303,0.0,0.0,41,0.00,,---,0.00,VWS V14.00,2013-04-02 08:43:00,
2013-04-02 01:48:00,43.4,21.3,29.84,WNW,303,0.0,0.0,41,0.00,,---,0.00,VWS V14.00,2013-04-02 08:48:00,
2013-04-02 01:53:00,42.9,20.3,29.84,WNW,303,0.0,0.0,40,0.00,,---,0.00,VWS V14.00,2013-04-02 08:53:00,
2013-04-02 01:58:00,41.6,20.2,29.83,WNW,303,0.0,0.0,42,0.00,,---,0.00,VWS V14.00,2013-04-02 08:58:00,
2013-04-02 02:00:00,41.0,20.2,29.83,WNW,303,0.0,0.0,43,0.00,,---,0.00,VWS V14.00,2013-04-02 09:00:00,
2013-04-02 02:03:00,40.6,19.3,29.83,WNW,303,0.0,0.0,42,0.00,,---,0.00,VWS V14.00,2013-04-02 09:03:00,
2013-04-02 02:08:00,39.3,19.8,29.83,WNW,303,0.0,0.0,45,0.00,,---,0.00,VWS V14.00,2013-04-02 09:08:00,
2013-04-02 02:13:00,38.2,19.3,29.83,WNW,303,0.0,0.0,46,0.00,,---,0.00,VWS V14.00,2013-04-02 09:13:00,
2013-04-02 02:18:00,37.3,18.4,29.83,WNW,303,0.0,0.0,46,0.00,,---,0.00,VWS V14.00,2013-04-02 09:18:00,
2013-04-02 02:23:00,36.5,19.2,29.83,WNW,303,0.0,0.0,49,0.00,,---,0.00,VWS V14.00,2013-04-02 09:23:00,
2013-04-02 02:28:00,37.0,19.6,29.83,WNW,303,0.0,0.0,49,0.00,,---,0.00,VWS V14.00,2013-04-02 09:28:00,
2013-04-02 02:33:00,36.7,19.4,29.82,WNW,303,0.0,0.0,49,0.00,,---,0.00,VWS V14.00,2013-04-02 09:33:00,
2013-04-02 02:38:00,36.3,19.9,29.82,WNW,303,0.0,0.0,51,0.00,,---,0.00,VWS V14.00,2013-04-02 09:38:00,
2013-04-02 02:43:00,35.9,19.1,29.82,WNW,303,0.0,0.0,50,0.00,,---,0.00,VWS V14.00,2013-04-02 09:43:00,
2013-04-02 02:48:00,35.2,19.4,29.82,WNW,303,0.0,0.0,52,0.00,,---,0.00,VWS V14.00,2013-04-02 09:48:00,
2013-04-02 02:53:00,35.1,19.3,29.82,WNW,303,0.0,0.0,52,0.00,,---,0.00,VWS V14.00,2013-04-02 09:53:00,
2013-04-02 02:58:00,34.9,19.5,29.82,WNW,303,0.0,0.0,53,0.00,,---,0.00,VWS V14.00,2013-04-02 09:58:00,
2013-04-02 03:00:00,34.9,19.5,29.82,WNW,303,0.0,0.0,53,0.00,,---,0.00,VWS V14.00,2013-04-02 10:00:00,
2013-04-02 03:03:00,34.9,19.1,29.82,WNW,303,0.0,0.0,52,0.00,,---,0.00,VWS V14.00,2013-04-02 10:03:00,
2013-04-02 03:08:00,34.6,17.9,29.82,WNW,303,0.0,0.0,50,0.00,,---,0.00,VWS V14.00,2013-04-02 10:08:00,
2013-04-02 03:13:00,34.1,18.8,29.83,WNW,303,0.0,0.0,53,0.00,,---,0.00,VWS V14.00,2013-04-02 10:13:00,
2013-04-02 03:18:00,34.4,19.5,29.83,WNW,303,0.0,0.0,54,0.00,,---,0.00,VWS V14.00,2013-04-02 10:18:00,
2013-04-02 04:00:00,35.1,20.1,29.84,North,0,0.0,0.0,54,0.00,,---,0.00,VWS V14.00,2013-04-02 11:00:00,
2013-04-02 05:30:00,42.4,19.2,29.85,WNW,292,0.0,0.0,39,0.00,,---,0.00,VWS V14.00,2013-04-02 12:30:00,
2013-04-02 06:00:00,38.7,19.7,29.84,WNW,292,0.0,0.0,46,0.00,,---,0.00,VWS V14.00,2013-04-02 13:00:00,
2013-04-02 06:30:00,40.1,20.5,29.85,WNW,292,0.0,0.0,45,0.00,,---,0.00,VWS V14.00,2013-04-02 13:30:00,
2013-04-02 07:30:00,50.4,19.4,29.86,WNW,292,0.0,0.0,29,0.00,,---,0.00,VWS V14.00,2013-04-02 14:30:00,
2013-04-02 08:00:00,57.1,23.5,29.86,WNW,292,0.0,0.0,27,0.00,,---,0.00,VWS V14.00,2013-04-02 15:00:00,
2013-04-02 08:30:00,57.9,23.2,29.87,West,270,2.0,6.0,26,0.00,,---,0.00,VWS V14.00,2013-04-02 15:30:00,
2013-04-02 08:54:00,57.9,23.2,29.87,West,270,2.0,6.0,26,0.00,,---,0.00,VWS V14.00,2013-04-02 15:54:00,
2013-04-02 08:59:00,59.0,23.2,29.87,SW,226,0.0,5.0,25,0.00,,---,0.00,VWS V14.00,2013-04-02 15:59:00,
2013-04-02 09:04:00,59.4,23.6,29.88,SW,227,0.0,0.0,25,0.00,,---,0.00,VWS V14.00,2013-04-02 16:04:00,
2013-04-02 09:09:00,59.4,23.6,29.88,SW,234,0.0,6.0,25,0.00,,---,0.00,VWS V14.00,2013-04-02 16:09:00,
2013-04-02 09:14:00,59.5,23.7,29.88,WSW,257,1.0,7.0,25,0.00,,---,0.00,VWS V14.00,2013-04-02 16:14:00,
2013-04-02 09:19:00,59.8,23.9,29.88,WSW,253,0.0,9.0,25,0.00,,---,0.00,VWS V14.00,2013-04-02 16:19:00,
2013-04-02 09:24:00,60.1,24.2,29.88,WNW,300,1.0,9.0,25,0.00,,---,0.00,VWS V14.00,2013-04-02 16:24:00,
2013-04-02 09:29:00,60.3,24.4,29.88,WNW,284,9.0,9.0,25,0.00,,---,0.00,VWS V14.00,2013-04-02 16:29:00,
2013-04-02 09:34:00,60.5,23.5,29.89,WSW,252,2.0,6.0,24,0.00,,---,0.00,VWS V14.00,2013-04-02 16:34:00,
2013-04-02 09:39:00,60.5,23.5,29.89,WSW,258,0.0,10.0,24,0.00,,---,0.00,VWS V14.00,2013-04-02 16:39:00,
2013-04-02 09:44:00,60.8,22.8,29.89,WNW,300,5.0,12.0,23,0.00,,---,0.00,VWS V14.00,2013-04-02 16:44:00,
2013-04-02 09:49:00,61.0,24.0,29.89,WNW,288,6.0,12.0,24,0.00,,---,0.00,VWS V14.00,2013-04-02 16:49:00,
2013-04-02 09:54:00,61.3,23.2,29.89,WNW,286,4.0,12.0,23,0.00,,---,0.00,VWS V14.00,2013-04-02 16:54:00,
2013-04-02 09:59:00,61.1,23.0,29.89,WNW,288,7.0,12.0,23,0.00,,---,0.00,VWS V14.00,2013-04-02 16:59:00,
2013-04-02 10:05:00,61.4,23.3,29.89,WNW,298,7.0,11.0,23,0.00,,---,0.00,VWS V14.00,2013-04-02 17:05:00,
2013-04-02 10:10:00,61.6,23.5,29.89,West,268,1.0,11.0,23,0.00,,---,0.00,VWS V14.00,2013-04-02 17:10:00,
2013-04-02 10:15:00,62.0,22.8,29.89,West,273,3.0,11.0,22,0.00,,---,0.00,VWS V14.00,2013-04-02 17:15:00,
2013-04-02 10:20:00,62.1,22.8,29.89,SW,215,6.0,11.0,22,0.00,,---,0.00,VWS V14.00,2013-04-02 17:20:00,
2013-04-02 10:25:00,62.5,24.2,29.89,West,268,6.0,11.0,23,0.00,,---,0.00,VWS V14.00,2013-04-02 17:25:00,
2013-04-02 10:30:00,63.2,23.8,29.89,West,271,2.0,11.0,22,0.00,,---,0.00,VWS V14.00,2013-04-02 17:30:00,
2013-04-02 10:35:00,63.1,22.6,29.89,West,260,0.0,12.0,21,0.00,,---,0.00,VWS V14.00,2013-04-02 17:35:00,
2013-04-02 10:40:00,62.9,22.4,29.89,West,275,5.0,12.0,21,0.00,,---,0.00,VWS V14.00,2013-04-02 17:40:00,
2013-04-02 10:45:00,63.1,20.2,29.88,WNW,296,9.0,16.0,19,0.00,,---,0.00,VWS V14.00,2013-04-02 17:45:00,
2013-04-02 10:50:00,63.6,21.8,29.88,NW,304,11.0,16.0,20,0.00,,---,0.00,VWS V14.00,2013-04-02 17:50:00,
2013-04-02 10:55:00,63.3,20.4,29.87,WNW,291,4.0,16.0,19,0.00,,---,0.00,VWS V14.00,2013-04-02 17:55:00,
2013-04-02 11:00:00,63.2,20.3,29.88,WSW,257,6.0,16.0,19,0.00,,---,0.00,VWS V14.00,2013-04-02 18:00:00,
2013-04-02 11:05:00,63.7,18.1,29.87,WSW,249,11.0,18.0,17,0.00,,---,0.00,VWS V14.00,2013-04-02 18:05:00,
2013-04-02 11:10:00,64.2,19.8,29.87,WNW,285,12.0,18.0,18,0.00,,---,0.00,VWS V14.00,2013-04-02 18:10:00,
2013-04-02 11:16:00,64.3,19.9,29.87,West,270,4.0,18.0,18,0.00,,---,0.00,VWS V14.00,2013-04-02 18:16:00,
2013-04-02 11:21:00,64.3,19.9,29.87,West,260,5.0,18.0,18,0.00,,---,0.00,VWS V14.00,2013-04-02 18:21:00,
2013-04-02 11:26:00,64.6,20.2,29.87,West,277,6.0,18.0,18,0.00,,---,0.00,VWS V14.00,2013-04-02 18:26:00,
2013-04-02 11:31:00,64.7,20.2,29.87,SW,226,0.0,18.0,18,0.00,,---,0.00,VWS V14.00,2013-04-02 18:31:00,
2013-04-02 11:36:00,65.0,20.5,29.87,NW,304,7.0,13.0,18,0.00,,---,0.00,VWS V14.00,2013-04-02 18:36:00,
2013-04-02 11:41:00,65.4,19.5,29.86,WNW,301,3.0,13.0,17,0.00,,---,0.00,VWS V14.00,2013-04-02 18:41:00,
2013-04-02 11:46:00,65.7,18.3,29.86,WSW,258,2.0,14.0,16,0.00,,---,0.00,VWS V14.00,2013-04-02 18:46:00,
2013-04-02 11:51:00,66.4,18.9,29.86,West,279,10.0,17.0,16,0.00,,---,0.00,VWS V14.00,2013-04-02 18:51:00,
2013-04-02 11:56:00,65.8,18.4,29.86,WSW,258,6.0,17.0,16,0.00,,---,0.00,VWS V14.00,2013-04-02 18:56:00,
2013-04-02 12:01:00,65.7,18.3,29.86,WNW,284,10.0,17.0,16,0.00,,---,0.00,VWS V14.00,2013-04-02 19:01:00,
2013-04-02 12:06:00,66.1,18.6,29.86,WNW,290,13.0,18.0,16,0.00,,---,0.00,VWS V14.00,2013-04-02 19:06:00,
2013-04-02 12:12:00,66.4,18.9,29.86,WNW,292,7.0,18.0,16,0.00,,---,0.00,VWS V14.00,2013-04-02 19:12:00,
2013-04-02 12:17:00,66.5,15.9,29.86,SW,218,11.0,19.0,14,0.00,,---,0.00,VWS V14.00,2013-04-02 19:17:00,
2013-04-02 12:22:00,67.4,18.2,29.86,West,281,12.0,19.0,15,0.00,,---,0.00,VWS V14.00,2013-04-02 19:22:00,
2013-04-02 12:27:00,67.4,16.6,29.85,WNW,288,13.0,19.0,14,0.00,,---,0.00,VWS V14.00,2013-04-02 19:27:00,
2013-04-02 12:32:00,67.4,13.1,29.85,WNW,286,15.0,15.0,12,0.00,,---,0.00,VWS V14.00,2013-04-02 19:32:00,
2013-04-02 12:37:00,67.6,15.0,29.85,SW,229,14.0,19.0,13,0.00,,---,0.00,VWS V14.00,2013-04-02 19:37:00,
2013-04-02 12:42:00,67.1,16.3,29.85,West,271,8.0,19.0,14,0.00,,---,0.00,VWS V14.00,2013-04-02 19:42:00,
2013-04-02 12:48:00,67.0,16.3,29.85,WNW,294,7.0,19.0,14,0.00,,---,0.00,VWS V14.00,2013-04-02 19:48:00,
2013-04-02 12:53:00,67.5,18.3,29.85,WNW,292,6.0,19.0,15,0.00,,---,0.00,VWS V14.00,2013-04-02 19:53:00,
2013-04-02 12:58:00,68.1,17.1,29.85,WNW,288,9.0,20.0,14,0.00,,---,0.00,VWS V14.00,2013-04-02 19:58:00,
2013-04-02 13:03:00,67.8,15.2,29.84,West,271,11.0,14.0,13,0.00,,---,0.00,VWS V14.00,2013-04-02 20:03:00,
2013-04-02 13:08:00,67.9,11.5,29.85,West,266,9.0,20.0,11,0.00,,---,0.00,VWS V14.00,2013-04-02 20:08:00,
2013-04-02 13:13:00,68.4,13.8,29.84,WSW,258,12.0,20.0,12,0.00,,---,0.00,VWS V14.00,2013-04-02 20:13:00,
2013-04-02 13:18:00,68.5,13.9,29.84,West,273,5.0,21.0,12,0.00,,---,0.00,VWS V14.00,2013-04-02 20:18:00,
2013-04-02 13:23:00,68.7,7.6,29.84,NW,306,14.0,21.0,9,0.00,,---,0.00,VWS V14.00,2013-04-02 20:23:00,
2013-04-02 13:28:00,69.2,8.0,29.84,WNW,294,13.0,21.0,9,0.00,,---,0.00,VWS V14.00,2013-04-02 20:28:00,
2013-04-02 13:33:00,69.2,10.4,29.83,SW,235,12.0,14.0,10,0.00,,---,0.00,VWS V14.00,2013-04-02 20:33:00,
2013-04-02 13:38:00,69.2,8.0,29.84,West,259,13.0,21.0,9,0.00,,---,0.00,VWS V14.00,2013-04-02 20:38:00,
2013-04-02 13:43:00,69.5,10.6,29.83,West,263,14.0,21.0,10,0.00,,---,0.00,VWS V14.00,2013-04-02 20:43:00,
2013-04-02 13:48:00,69.4,10.5,29.83,WSW,243,12.0,23.0,10,0.00,,---,0.00,VWS V14.00,2013-04-02 20:48:00,
2013-04-02 13:53:00,69.6,8.3,29.83,WSW,253,10.0,23.0,9,0.00,,---,0.00,VWS V14.00,2013-04-02 20:53:00,
2013-04-02 13:58:00,69.4,8.2,29.83,West,267,16.0,23.0,9,0.00,,---,0.00,VWS V14.00,2013-04-02 20:58:00,
2013-04-02 14:03:00,69.6,8.3,29.83,West,260,7.0,16.0,9,0.00,,---,0.00,VWS V14.00,2013-04-02 21:03:00,
2013-04-02 14:08:00,69.1,5.3,29.83,WSW,244,10.0,17.0,8,0.00,,---,0.00,VWS V14.00,2013-04-02 21:08:00,
2013-04-02 14:13:00,69.2,8.0,29.83,West,266,16.0,19.0,9,0.00,,---,0.00,VWS V14.00,2013-04-02 21:13:00,
2013-04-02 14:18:00,69.4,5.6,29.82,WSW,252,12.0,21.0,8,0.00,,---,0.00,VWS V14.00,2013-04-02 21:18:00,
2013-04-02 14:23:00,68.9,10.1,29.82,WSW,247,13.0,21.0,10,0.00,,---,0.00,VWS V14.00,2013-04-02 21:23:00,
2013-04-02 14:28:00,69.4,10.5,29.82,West,264,9.0,21.0,10,0.00,,---,0.00,VWS V14.00,2013-04-02 21:28:00,
2013-04-02 14:33:00,69.6,8.3,29.82,West,275,19.0,19.0,9,0.00,,---,0.00,VWS V14.00,2013-04-02 21:33:00,
2013-04-02 14:39:00,69.8,10.8,29.82,West,269,16.0,21.0,10,0.00,,---,0.00,VWS V14.00,2013-04-02 21:39:00,
2013-04-02 14:44:00,69.2,10.4,29.82,West,269,12.0,21.0,10,0.00,,---,0.00,VWS V14.00,2013-04-02 21:44:00,
2013-04-02 14:49:00,69.3,8.1,29.82,WSW,245,8.0,21.0,9,0.00,,---,0.00,VWS V14.00,2013-04-02 21:49:00,
2013-04-02 14:54:00,69.3,10.4,29.82,West,277,13.0,21.0,10,0.00,,---,0.00,VWS V14.00,2013-04-02 21:54:00,
2013-04-02 14:59:00,69.1,12.4,29.81,West,276,19.0,23.0,11,0.00,,---,0.00,VWS V14.00,2013-04-02 21:59:00,
2013-04-02 15:04:00,69.0,12.3,29.82,WNW,296,15.0,19.0,11,0.00,,---,0.00,VWS V14.00,2013-04-02 22:04:00,
2013-04-02 15:09:00,69.3,10.4,29.82,WSW,251,6.0,26.0,10,0.00,,---,0.00,VWS V14.00,2013-04-02 22:09:00,
2013-04-02 15:14:00,69.3,12.6,29.82,West,273,14.0,26.0,11,0.00,,---,0.00,VWS V14.00,2013-04-02 22:14:00,
2013-04-02 15:19:00,68.8,14.1,29.82,SW,220,4.0,26.0,12,0.00,,---,0.00,VWS V14.00,2013-04-02 22:19:00,
2013-04-02 15:24:00,68.5,7.5,29.82,West,276,15.0,26.0,9,0.00,,---,0.00,VWS V14.00,2013-04-02 22:24:00,
2013-04-02 15:29:00,68.8,7.7,29.82,West,261,10.0,26.0,9,0.00,,---,0.00,VWS V14.00,2013-04-02 22:29:00,
2013-04-02 15:34:00,68.7,10.0,29.82,WSW,248,16.0,18.0,10,0.00,,---,0.00,VWS V14.00,2013-04-02 22:34:00,
2013-04-02 15:39:00,69.0,7.8,29.82,West,267,18.0,19.0,9,0.00,,---,0.00,VWS V14.00,2013-04-02 22:39:00,
2013-04-02 15:44:00,68.7,10.0,29.82,West,266,6.0,20.0,10,0.00,,---,0.00,VWS V14.00,2013-04-02 22:44:00,
2013-04-02 15:49:00,69.1,10.3,29.82,West,276,16.0,20.0,10,0.00,,---,0.00,VWS V14.00,2013-04-02 22:49:00,
2013-04-02 15:54:00,68.5,9.8,29.82,West,273,20.0,23.0,10,0.00,,---,0.00,VWS V14.00,2013-04-02 22:54:00,
2013-04-02 15:59:00,68.6,9.9,29.82,West,277,17.0,23.0,10,0.00,,---,0.00,VWS V14.00,2013-04-02 22:59:00,
2013-04-02 16:04:00,68.2,9.6,29.82,West,260,14.0,19.0,10,0.00,,---,0.00,VWS V14.00,2013-04-02 23:04:00,
2013-04-02 16:09:00,68.1,9.5,29.83,WSW,257,12.0,20.0,10,0.00,,---,0.00,VWS V14.00,2013-04-02 23:09:00,
2013-04-02 16:14:00,68.0,9.4,29.83,WSW,257,9.0,20.0,10,0.00,,---,0.00,VWS V14.00,2013-04-02 23:14:00,
2013-04-02 16:19:00,68.0,13.5,29.83,WSW,248,9.0,20.0,12,0.00,,---,0.00,VWS V14.00,2013-04-02 23:19:00,
2013-04-02 16:24:00,67.6,13.2,29.83,West,273,7.0,23.0,12,0.00,,---,0.00,VWS V14.00,2013-04-02 23:24:00,
2013-04-02 16:29:00,67.5,13.1,29.83,West,260,11.0,23.0,12,0.00,,---,0.00,VWS V14.00,2013-04-02 23:29:00,
2013-04-02 16:35:00,66.9,14.5,29.83,West,268,15.0,18.0,13,0.00,,---,0.00,VWS V14.00,2013-04-02 23:35:00,
2013-04-02 16:40:00,67.4,14.9,29.83,WSW,247,12.0,20.0,13,0.00,,---,0.00,VWS V14.00,2013-04-02 23:40:00,
2013-04-02 16:45:00,67.1,14.6,29.83,West,277,9.0,20.0,13,0.00,,---,0.00,VWS V14.00,2013-04-02 23:45:00,
2013-04-02 16:50:00,66.3,14.0,29.83,West,273,13.0,20.0,13,0.00,,---,0.00,VWS V14.00,2013-04-02 23:50:00,
2013-04-02 16:55:00,66.5,15.9,29.84,WSW,253,1.0,20.0,14,0.00,,---,0.00,VWS V14.00,2013-04-02 23:55:00,
2013-04-02 17:00:00,66.8,16.1,29.83,West,266,12.0,20.0,14,0.00,,---,0.00,VWS V14.00,2013-04-03 00:00:00,
2013-04-02 17:05:00,66.7,17.6,29.83,West,267,16.0,19.0,15,0.00,,---,0.00,VWS V14.00,2013-04-03 00:05:00,
2013-04-02 17:10:00,65.6,16.7,29.84,West,270,13.0,19.0,15,0.00,,---,0.00,VWS V14.00,2013-04-03 00:10:00,
2013-04-02 17:15:00,65.3,16.5,29.84,West,261,20.0,20.0,15,0.00,,---,0.00,VWS V14.00,2013-04-03 00:15:00,
2013-04-02 17:20:00,65.5,16.7,29.84,West,269,2.0,20.0,15,0.00,,---,0.00,VWS V14.00,2013-04-03 00:20:00,
2013-04-02 17:26:00,64.9,16.2,29.84,WSW,257,6.0,20.0,15,0.00,,---,0.00,VWS V14.00,2013-04-03 00:26:00,
2013-04-02 17:31:00,64.7,17.5,29.84,West,268,16.0,20.0,16,0.00,,---,0.00,VWS V14.00,2013-04-03 00:31:00,
2013-04-02 17:36:00,64.8,17.6,29.84,WSW,247,8.0,18.0,16,0.00,,---,0.00,VWS V14.00,2013-04-03 00:36:00,
2013-04-02 17:41:00,65.0,17.8,29.85,West,264,15.0,18.0,16,0.00,,---,0.00,VWS V14.00,2013-04-03 00:41:00,
2013-04-02 17:46:00,64.9,16.2,29.85,West,263,2.0,18.0,15,0.00,,---,0.00,VWS V14.00,2013-04-03 00:46:00,
2013-04-02 17:51:00,64.5,17.3,29.85,WSW,251,9.0,18.0,16,0.00,,---,0.00,VWS V14.00,2013-04-03 00:51:00,
2013-04-02 17:56:00,64.3,17.2,29.85,West,265,9.0,18.0,16,0.00,,---,0.00,VWS V14.00,2013-04-03 00:56:00,
2013-04-02 18:02:00,64.1,17.0,29.86,West,265,2.0,18.0,16,0.00,,---,0.00,VWS V14.00,2013-04-03 01:02:00,
2013-04-02 18:07:00,63.9,16.9,29.86,West,269,9.0,14.0,16,0.00,,---,0.00,VWS V14.00,2013-04-03 01:07:00,
2013-04-02 18:12:00,63.6,18.0,29.86,West,264,7.0,15.0,17,0.00,,---,0.00,VWS V14.00,2013-04-03 01:12:00,
2013-04-02 18:17:00,63.1,17.6,29.86,West,278,12.0,15.0,17,0.00,,---,0.00,VWS V14.00,2013-04-03 01:17:00,
2013-04-02 18:22:00,62.7,17.3,29.86,WSW,253,4.0,15.0,17,0.00,,---,0.00,VWS V14.00,2013-04-03 01:22:00,
2013-04-02 18:27:00,62.3,17.0,29.86,West,281,10.0,15.0,17,0.00,,---,0.00,VWS V14.00,2013-04-03 01:27:00,
2013-04-02 18:32:00,61.8,17.9,29.87,West,274,5.0,7.0,18,0.00,,---,0.00,VWS V14.00,2013-04-03 01:32:00,
2013-04-02 18:37:00,61.1,17.3,29.87,West,270,2.0,7.0,18,0.00,,---,0.00,VWS V14.00,2013-04-03 01:37:00,
2013-04-02 18:42:00,60.5,18.1,29.87,West,275,1.0,7.0,19,0.00,,---,0.00,VWS V14.00,2013-04-03 01:42:00,
2013-04-02 18:47:00,59.8,17.5,29.87,West,273,1.0,11.0,19,0.00,,---,0.00,VWS V14.00,2013-04-03 01:47:00,
2013-04-02 18:52:00,59.0,16.8,29.87,West,273,0.0,11.0,19,0.00,,---,0.00,VWS V14.00,2013-04-03 01:52:00,
2013-04-02 18:57:00,58.4,17.5,29.87,West,273,1.0,11.0,20,0.00,,---,0.00,VWS V14.00,2013-04-03 01:57:00,
2013-04-02 19:03:00,57.8,17.0,29.87,West,267,1.0,1.0,20,0.00,,---,0.00,VWS V14.00,2013-04-03 02:03:00,
2013-04-02 19:08:00,57.4,16.7,29.87,West,267,0.0,1.0,20,0.00,,---,0.00,VWS V14.00,2013-04-03 02:08:00,
2013-04-02 19:13:00,56.8,17.3,29.87,West,267,0.0,1.0,21,0.00,,---,0.00,VWS V14.00,2013-04-03 02:13:00,
2013-04-02 19:18:00,56.4,17.0,29.87,West,267,0.0,3.0,21,0.00,,---,0.00,VWS V14.00,2013-04-03 02:18:00,
2013-04-02 19:23:00,56.2,16.8,29.87,West,267,0.0,3.0,21,0.00,,---,0.00,VWS V14.00,2013-04-03 02:23:00,
2013-04-02 19:28:00,55.6,16.3,29.88,West,267,0.0,3.0,21,0.00,,---,0.00,VWS V14.00,2013-04-03 02:28:00,
2013-04-02 19:33:00,54.9,15.7,29.88,West,267,0.0,0.0,21,0.00,,---,0.00,VWS V14.00,2013-04-03 02:33:00,
2013-04-02 19:38:00,53.8,15.9,29.88,West,267,0.0,0.0,22,0.00,,---,0.00,VWS V14.00,2013-04-03 02:38:00,
2013-04-02 19:43:00,53.3,15.4,29.88,West,267,0.0,0.0,22,0.00,,---,0.00,VWS V14.00,2013-04-03 02:43:00,
2013-04-02 19:48:00,52.7,16.0,29.89,West,267,0.0,0.0,23,0.00,,---,0.00,VWS V14.00,2013-04-03 02:48:00,
2013-04-02 19:53:00,52.3,15.6,29.89,West,267,0.0,0.0,23,0.00,,---,0.00,VWS V14.00,2013-04-03 02:53:00,
2013-04-02 19:58:00,52.0,15.4,29.89,West,267,0.0,0.0,23,0.00,,---,0.00,VWS V14.00,2013-04-03 02:58:00,
2013-04-02 20:04:00,51.4,15.8,29.89,West,267,0.0,0.0,24,0.00,,---,0.00,VWS V14.00,2013-04-03 03:04:00,
2013-04-02 20:09:00,50.9,15.4,29.89,West,267,0.0,0.0,24,0.00,,---,0.00,VWS V14.00,2013-04-03 03:09:00,
2013-04-02 20:14:00,50.8,16.3,29.89,West,267,0.0,0.0,25,0.00,,---,0.00,VWS V14.00,2013-04-03 03:14:00,
2013-04-02 20:19:00,50.7,16.2,29.90,West,267,0.0,0.0,25,0.00,,---,0.00,VWS V14.00,2013-04-03 03:19:00,
2013-04-02 20:24:00,50.7,16.2,29.90,West,267,0.0,0.0,25,0.00,,---,0.00,VWS V14.00,2013-04-03 03:24:00,
2013-04-02 20:29:00,50.7,17.1,29.90,West,267,0.0,0.0,26,0.00,,---,0.00,VWS V14.00,2013-04-03 03:29:00,
2013-04-02 20:34:00,50.8,17.2,29.90,West,267,0.0,0.0,26,0.00,,---,0.00,VWS V14.00,2013-04-03 03:34:00,
2013-04-02 20:39:00,50.6,16.1,29.90,West,267,0.0,0.0,25,0.00,,---,0.00,VWS V14.00,2013-04-03 03:39:00,
2013-04-02 20:44:00,50.6,17.0,29.90,West,267,0.0,0.0,26,0.00,,---,0.00,VWS V14.00,2013-04-03 03:44:00,
2013-04-02 20:49:00,50.9,17.2,29.90,West,267,0.0,0.0,26,0.00,,---,0.00,VWS V14.00,2013-04-03 03:49:00,
2013-04-02 20:54:00,50.8,18.0,29.90,West,267,0.0,0.0,27,0.00,,---,0.00,VWS V14.00,2013-04-03 03:54:00,
2013-04-02 20:59:00,50.8,17.2,29.91,West,267,0.0,0.0,26,0.00,,---,0.00,VWS V14.00,2013-04-03 03:59:00,
2013-04-02 21:00:00,50.8,17.2,29.91,West,267,0.0,0.0,26,0.00,,---,0.00,VWS V14.00,2013-04-03 04:00:00,
2013-04-02 21:05:00,51.4,18.6,29.91,West,267,0.0,0.0,27,0.00,,---,0.00,VWS V14.00,2013-04-03 04:05:00,
2013-04-02 21:10:00,51.7,17.9,29.91,West,267,0.0,0.0,26,0.00,,---,0.00,VWS V14.00,2013-04-03 04:10:00,
2013-04-02 21:15:00,51.6,17.9,29.91,West,267,0.0,0.0,26,0.00,,---,0.00,VWS V14.00,2013-04-03 04:15:00,
2013-04-02 21:20:00,51.2,17.5,29.91,West,267,0.0,0.0,26,0.00,,---,0.00,VWS V14.00,2013-04-03 04:20:00,
2013-04-02 21:25:00,50.5,16.0,29.91,West,267,0.0,0.0,25,0.00,,---,0.00,VWS V14.00,2013-04-03 04:25:00,
2013-04-02 21:30:00,49.4,16.8,29.91,West,267,0.0,0.0,27,0.00,,---,0.00,VWS V14.00,2013-04-03 04:30:00,
2013-04-02 21:35:00,49.2,16.7,29.91,West,267,0.0,0.0,27,0.00,,---,0.00,VWS V14.00,2013-04-03 04:35:00,
2013-04-02 21:40:00,48.6,17.0,29.91,West,267,0.0,0.0,28,0.00,,---,0.00,VWS V14.00,2013-04-03 04:40:00,
2013-04-02 21:45:00,47.4,14.2,29.92,West,267,0.0,0.0,26,0.00,,---,0.00,VWS V14.00,2013-04-03 04:45:00,
2013-04-02 21:50:00,46.5,16.0,29.92,West,267,0.0,0.0,29,0.00,,---,0.00,VWS V14.00,2013-04-03 04:50:00,
2013-04-02 21:55:00,47.0,16.4,29.92,West,267,0.0,0.0,29,0.00,,---,0.00,VWS V14.00,2013-04-03 04:55:00,
2013-04-02 22:00:00,47.3,15.9,29.92,West,267,0.0,0.0,28,0.00,,---,0.00,VWS V14.00,2013-04-03 05:00:00,
2013-04-02 22:05:00,47.0,16.4,29.92,West,267,0.0,0.0,29,0.00,,---,0.00,VWS V14.00,2013-04-03 05:05:00,
2013-04-02 22:10:00,46.7,16.9,29.92,West,267,0.0,0.0,30,0.00,,---,0.00,VWS V14.00,2013-04-03 05:10:00,
2013-04-02 22:15:00,46.2,14.9,29.92,West,267,0.0,0.0,28,0.00,,---,0.00,VWS V14.00,2013-04-03 05:15:00,
2013-04-02 22:21:00,44.4,14.1,29.93,West,267,0.0,0.0,29,0.00,,---,0.00,VWS V14.00,2013-04-03 05:21:00,
2013-04-02 22:25:00,42.9,14.4,29.93,West,267,0.0,0.0,31,0.00,,---,0.00,VWS V14.00,2013-04-03 05:25:00,
2013-04-02 22:31:00,41.7,15.4,29.93,West,267,0.0,0.0,34,0.00,,---,0.00,VWS V14.00,2013-04-03 05:31:00,
2013-04-02 22:36:00,41.6,14.6,29.93,West,267,0.0,0.0,33,0.00,,---,0.00,VWS V14.00,2013-04-03 05:36:00,
2013-04-02 22:41:00,41.4,13.8,29.93,West,267,0.0,0.0,32,0.00,,---,0.00,VWS V14.00,2013-04-03 05:41:00,
2013-04-02 22:46:00,40.5,13.7,29.93,West,267,0.0,0.0,33,0.00,,---,0.00,VWS V14.00,2013-04-03 05:46:00,
2013-04-02 22:51:00,39.3,13.3,29.93,West,267,0.0,0.0,34,0.00,,---,0.00,VWS V14.00,2013-04-03 05:51:00,
2013-04-02 22:56:00,38.3,14.3,29.94,West,267,0.0,0.0,37,0.00,,---,0.00,VWS V14.00,2013-04-03 05:56:00,
2013-04-02 23:01:00,37.8,14.5,29.94,West,267,0.0,0.0,38,0.00,,---,0.00,VWS V14.00,2013-04-03 06:01:00,
2013-04-02 23:06:00,37.7,14.4,29.94,West,267,0.0,0.0,38,0.00,,---,0.00,VWS V14.00,2013-04-03 06:06:00,
2013-04-02 23:11:00,37.9,15.2,29.94,West,267,0.0,0.0,39,0.00,,---,0.00,VWS V14.00,2013-04-03 06:11:00,
2013-04-02 23:16:00,38.6,16.4,29.94,West,267,0.0,0.0,40,0.00,,---,0.00,VWS V14.00,2013-04-03 06:16:00,
2013-04-02 23:21:00,38.8,15.4,29.94,West,267,0.0,0.0,38,0.00,,---,0.00,VWS V14.00,2013-04-03 06:21:00,
2013-04-02 23:26:00,38.6,14.6,29.94,West,267,0.0,0.0,37,0.00,,---,0.00,VWS V14.00,2013-04-03 06:26:00,
2013-04-02 23:31:00,38.3,15.5,29.94,West,267,0.0,0.0,39,0.00,,---,0.00,VWS V14.00,2013-04-03 06:31:00,
2013-04-02 23:36:00,39.1,16.2,29.94,West,267,0.0,0.0,39,0.00,,---,0.00,VWS V14.00,2013-04-03 06:36:00,
2013-04-02 23:41:00,40.3,16.1,29.93,West,267,0.0,0.0,37,0.00,,---,0.00,VWS V14.00,2013-04-03 06:41:00,
2013-04-02 23:46:00,40.1,15.3,29.94,West,267,0.0,0.0,36,0.00,,---,0.00,VWS V14.00,2013-04-03 06:46:00,
2013-04-02 23:51:00,39.4,15.3,29.94,West,267,0.0,0.0,37,0.00,,---,0.00,VWS V14.00,2013-04-03 06:51:00,
2013-04-02 23:56:00,40.1,17.1,29.93,West,267,0.0,0.0,39,0.00,,---,0.00,VWS V14.00,2013-04-03 06:56:00,